Time;durP1;ratioP1;P1;durP2;ratioP2;P2;SDS_P1;SDS_P2;PMS_P1;PMS_P2;Temp;Humidity;BMP_temperature;BMP_pressure;BME280_temperature;BME280_humidity;BME280_pressure;Samples;Min_cycle;Max_cycle;Signal;HPM_P1;HPM_P2
2023/02/14 00:02:06;;;;;;;24.42;14.95;;;-1.30;86.80;;;;;;5025386;28;20026;-68
2023/02/14 00:04:32;;;;;;;21.52;13.40;;;-1.30;86.60;;;;;;5034642;28;20025;-67
2023/02/14 00:06:57;;;;;;;22.50;14.43;;;-1.20;86.70;;;;;;5032203;28;20029;-68
2023/02/14 00:09:23;;;;;;;24.95;15.10;;;-1.20;86.60;;;;;;5032291;28;20414;-67
2023/02/14 00:11:49;;;;;;;22.85;13.43;;;-1.20;87.20;;;;;;5035096;28;20029;-68
2023/02/14 00:17:00;;;;;;;25.10;15.27;;;-1.20;87.70;;;;;;5032295;28;20092;-68
2023/02/14 00:19:27;;;;;;;24.45;14.82;;;-1.20;87.60;;;;;;5033676;28;20037;-68
2023/02/14 00:21:53;;;;;;;23.73;14.45;;;-1.20;87.30;;;;;;5034153;28;20025;-67
2023/02/14 00:24:21;;;;;;;21.58;13.57;;;-1.20;87.40;;;;;;5032979;28;20234;-66
2023/02/14 00:26:48;;;;;;;21.58;13.98;;;-1.10;87.40;;;;;;5034528;28;20406;-67
2023/02/14 00:29:17;;;;;;;23.23;14.90;;;-1.10;87.30;;;;;;5032448;28;20095;-67
2023/02/14 00:31:43;;;;;;;22.40;13.98;;;-1.10;87.10;;;;;;5029432;28;20030;-67
2023/02/14 00:34:10;;;;;;;23.63;14.02;;;-1.10;87.00;;;;;;5018119;28;20026;-67
2023/02/14 00:36:36;;;;;;;23.02;13.98;;;-1.10;87.60;;;;;;5033291;28;20414;-67
2023/02/14 00:39:04;;;;;;;24.13;14.52;;;-1.10;86.90;;;;;;5032005;28;20041;-67
2023/02/14 00:41:30;;;;;;;25.50;16.02;;;-1.10;87.20;;;;;;5020474;28;20026;-67
2023/02/14 00:43:56;;;;;;;26.08;15.20;;;-1.10;87.40;;;;;;5032890;28;20026;-67
2023/02/14 00:46:23;;;;;;;28.65;15.50;;;-1.10;87.00;;;;;;5030665;28;20034;-66
2023/02/14 00:48:49;;;;;;;28.33;16.60;;;-1.10;86.70;;;;;;5033511;28;20029;-67
2023/02/14 00:51:17;;;;;;;25.83;16.15;;;-1.10;86.60;;;;;;5032342;28;20410;-67
2023/02/14 00:53:43;;;;;;;26.15;15.60;;;-1.10;86.80;;;;;;5035499;28;20030;-67
2023/02/14 00:56:09;;;;;;;27.13;16.17;;;-1.10;87.30;;;;;;5034254;28;20397;-67
2023/02/14 00:58:34;;;;;;;25.00;15.43;;;-1.00;86.90;;;;;;5033488;28;20033;-67
2023/02/14 01:01:00;;;;;;;25.05;15.23;;;-1.00;87.00;;;;;;5030136;28;20064;-67
2023/02/14 01:03:26;;;;;;;27.60;16.58;;;-1.00;87.10;;;;;;5031663;28;20025;-66
2023/02/14 01:05:52;;;;;;;25.30;15.45;;;-0.90;86.30;;;;;;5030965;28;20037;-65
2023/02/14 01:08:18;;;;;;;26.85;15.95;;;-0.90;86.10;;;;;;5030085;28;20037;-66
2023/02/14 01:10:44;;;;;;;27.17;15.27;;;-0.90;86.30;;;;;;5032934;28;20426;-66
2023/02/14 01:13:11;;;;;;;26.45;15.63;;;-0.80;86.00;;;;;;5031753;28;20032;-67
2023/02/14 01:15:39;;;;;;;33.08;18.17;;;-0.80;85.60;;;;;;5032867;28;20087;-67
2023/02/14 01:18:05;;;;;;;32.22;17.98;;;-0.80;85.60;;;;;;5032321;28;20025;-67
2023/02/14 01:20:31;;;;;;;33.25;19.58;;;-0.80;85.70;;;;;;5029754;28;20083;-65
2023/02/14 01:22:56;;;;;;;31.90;18.80;;;-0.80;85.80;;;;;;5033701;28;20060;-66
2023/02/14 01:25:22;;;;;;;29.95;17.60;;;-0.80;84.70;;;;;;5032523;28;20021;-66
2023/02/14 01:27:48;;;;;;;31.13;18.67;;;-0.80;85.00;;;;;;5013436;28;20120;-67
2023/02/14 01:30:13;;;;;;;30.80;18.52;;;-0.80;85.30;;;;;;5026927;28;20068;-67
2023/02/14 01:32:39;;;;;;;31.45;19.95;;;-0.80;85.10;;;;;;5033754;28;20108;-66
2023/02/14 01:35:05;;;;;;;36.03;19.70;;;-0.80;85.40;;;;;;5014999;28;20067;-66
2023/02/14 01:37:30;;;;;;;38.40;22.00;;;-0.70;85.60;;;;;;5032985;28;20025;-67
2023/02/14 01:39:56;;;;;;;37.20;21.10;;;-0.80;85.50;;;;;;5029574;28;20304;-66
2023/02/14 01:42:22;;;;;;;47.17;26.70;;;-0.90;84.60;;;;;;5027757;28;20104;-66
2023/02/14 01:45:15;;;;;;;47.95;27.98;;;-0.90;83.70;;;;;;5023987;28;20025;-67
2023/02/14 01:47:43;;;;;;;47.58;25.60;;;-1.00;82.90;;;;;;5032611;28;20036;-67
2023/02/14 01:50:25;;;;;;;32.42;18.50;;;-1.20;83.50;;;;;;5028583;28;20325;-68
2023/02/14 01:53:05;;;;;;;30.02;16.80;;;-1.40;82.80;;;;;;5033387;28;20437;-67
2023/02/14 01:55:38;;;;;;;31.08;16.90;;;-1.50;82.40;;;;;;5019216;28;20056;-66
2023/02/14 01:58:08;;;;;;;32.22;18.25;;;-1.70;81.90;;;;;;5009739;28;20432;-67
2023/02/14 02:03:21;;;;;;;38.45;20.05;;;-1.80;80.60;;;;;;5031081;28;20053;-66
2023/02/14 02:05:50;;;;;;;39.22;20.83;;;-1.60;77.90;;;;;;5033815;28;20030;-66
2023/02/14 02:08:19;;;;;;;33.70;19.35;;;-1.40;77.20;;;;;;5008614;28;20429;-66
2023/02/14 02:10:44;;;;;;;43.40;21.90;;;-1.30;77.60;;;;;;5029886;28;20106;-67
2023/02/14 02:13:16;;;;;;;38.08;20.23;;;-1.40;78.30;;;;;;5030337;28;20034;-66
2023/02/14 02:16:09;;;;;;;33.60;18.98;;;-1.40;77.30;;;;;;5028221;28;20033;-66
2023/02/14 02:18:59;;;;;;;37.55;21.38;;;-1.30;76.30;;;;;;5030875;28;20365;-66
2023/02/14 02:21:40;;;;;;;36.22;19.73;;;-1.30;77.00;;;;;;5030295;28;20080;-67
2023/02/14 02:24:30;;;;;;;37.92;19.33;;;-1.30;77.30;;;;;;5035701;28;20401;-66
2023/02/14 02:26:55;;;;;;;39.08;21.15;;;-1.30;76.50;;;;;;5032253;28;20108;-66
2023/02/14 02:29:41;;;;;;;41.28;21.73;;;-1.30;77.20;;;;;;5032527;28;20116;-66
2023/02/14 02:32:37;;;;;;;38.33;20.42;;;-1.30;76.90;;;;;;5034992;28;20309;-66
2023/02/14 02:35:26;;;;;;;36.15;20.25;;;-1.30;76.50;;;;;;5033699;28;20100;-67
2023/02/14 02:38:19;;;;;;;39.20;20.50;;;-1.30;76.30;;;;;;5035920;28;20326;-66
2023/02/14 02:40:57;;;;;;;34.92;20.63;;;-1.30;76.20;;;;;;5033219;28;20300;-66
2023/02/14 02:43:34;;;;;;;42.13;22.65;;;-1.30;76.30;;;;;;5032835;28;20013;-66
2023/02/14 02:55:18;;;;;;;42.42;22.88;;;-1.30;75.50;;;;;;5026705;28;20045;-67
2023/02/14 02:57:47;;;;;;;40.50;22.40;;;-1.20;74.30;;;;;;5027051;28;20106;-67
2023/02/14 03:00:14;;;;;;;35.40;20.20;;;-1.30;74.80;;;;;;5034015;28;20123;-66
2023/02/14 03:05:34;;;;;;;32.38;17.75;;;-1.40;74.10;;;;;;5014255;28;20064;-66
2023/02/14 03:08:02;;;;;;;36.35;19.88;;;-1.40;73.80;;;;;;5014533;28;20030;-66
2023/02/14 03:10:34;;;;;;;38.78;20.95;;;-1.30;73.50;;;;;;5014749;28;20043;-66
2023/02/14 03:13:19;;;;;;;35.55;20.38;;;-1.30;72.90;;;;;;5013177;28;20041;-66
2023/02/14 03:16:09;;;;;;;39.80;20.98;;;-1.20;73.60;;;;;;5010472;28;20044;-66
2023/02/14 03:21:41;;;;;;;35.67;19.20;;;-1.10;75.50;;;;;;5025893;28;20803;-66
2023/02/14 03:24:28;;;;;;;37.55;19.20;;;-1.10;76.30;;;;;;5033529;28;20323;-66
2023/02/14 03:27:09;;;;;;;40.17;19.83;;;-1.10;77.10;;;;;;5027484;28;20045;-66
2023/02/14 03:30:08;;;;;;;37.95;20.20;;;-1.20;77.90;;;;;;5028400;28;20028;-66
2023/02/14 03:32:45;;;;;;;31.17;17.23;;;-1.20;77.50;;;;;;5029891;28;20113;-66
2023/02/14 03:35:25;;;;;;;35.50;18.40;;;-1.30;77.30;;;;;;5034982;28;20033;-66
2023/02/14 03:38:24;;;;;;;27.67;15.57;;;-1.30;76.10;;;;;;5029739;28;20029;-67
2023/02/14 03:41:06;;;;;;;32.03;16.92;;;-1.40;77.00;;;;;;5019766;28;20199;-67
2023/02/14 03:43:40;;;;;;;30.70;17.52;;;-1.50;76.90;;;;;;5032293;28;20033;-67
2023/02/14 03:46:33;;;;;;;30.10;17.42;;;-1.50;76.50;;;;;;5029073;28;20088;-66
2023/02/14 03:49:04;;;;;;;31.65;17.80;;;-1.50;75.40;;;;;;5018257;28;20030;-66
2023/02/14 03:51:33;;;;;;;30.92;16.25;;;-1.50;75.30;;;;;;5029354;28;20025;-67
2023/02/14 03:54:00;;;;;;;27.67;15.02;;;-1.40;74.80;;;;;;5033374;28;20025;-66
2023/02/14 03:56:45;;;;;;;26.23;14.68;;;-1.50;75.40;;;;;;5034827;28;20073;-67
2023/02/14 03:59:21;;;;;;;25.60;13.98;;;-1.50;74.90;;;;;;5027844;28;20029;-67
2023/02/14 04:01:57;;;;;;;23.15;13.23;;;-1.60;75.30;;;;;;5032848;28;20373;-66
2023/02/14 04:04:26;;;;;;;24.70;13.35;;;-1.70;74.90;;;;;;5015961;28;20032;-67
2023/02/14 04:06:52;;;;;;;34.53;16.85;;;-1.60;73.70;;;;;;5033436;28;20052;-66
2023/02/14 04:09:17;;;;;;;33.08;17.58;;;-1.60;73.50;;;;;;5032689;28;20060;-67
2023/02/14 04:11:45;;;;;;;26.23;13.65;;;-1.60;72.70;;;;;;5031766;28;20026;-66
2023/02/14 04:14:11;;;;;;;26.35;14.15;;;-1.50;73.20;;;;;;5028889;28;20315;-66
2023/02/14 04:19:21;;;;;;;24.92;13.88;;;-1.60;73.50;;;;;;5033332;28;20319;-66
2023/02/14 04:21:47;;;;;;;21.13;12.63;;;-1.60;72.50;;;;;;5031147;28;20031;-66
2023/02/14 04:24:12;;;;;;;24.55;13.50;;;-1.60;72.20;;;;;;5017902;28;20037;-66
2023/02/14 04:26:38;;;;;;;23.48;13.32;;;-1.60;72.40;;;;;;5013385;28;20025;-66
2023/02/14 04:29:04;;;;;;;23.83;13.57;;;-1.60;72.10;;;;;;5033421;28;20100;-66
2023/02/14 04:31:29;;;;;;;25.98;14.27;;;-1.70;72.60;;;;;;5028597;28;20067;-66
2023/02/14 04:33:55;;;;;;;31.45;15.70;;;-1.80;72.90;;;;;;5028748;28;20040;-66
2023/02/14 04:36:20;;;;;;;28.92;14.77;;;-1.70;71.30;;;;;;5032998;28;20064;-67
2023/02/14 04:38:46;;;;;;;30.50;15.95;;;-1.60;70.60;;;;;;5033690;28;20029;-66
2023/02/14 04:41:11;;;;;;;27.25;14.30;;;-1.60;71.50;;;;;;5033706;28;20030;-66
2023/02/14 04:43:37;;;;;;;26.98;15.75;;;-1.60;71.70;;;;;;5032640;28;20065;-67
2023/02/14 04:46:02;;;;;;;25.35;14.35;;;-1.50;71.20;;;;;;5040975;28;20024;-66
2023/02/14 04:48:28;;;;;;;26.33;14.48;;;-1.50;72.00;;;;;;5032605;28;20112;-66
2023/02/14 04:50:54;;;;;;;25.95;15.20;;;-1.50;71.70;;;;;;5036601;28;20041;-66
2023/02/14 04:53:20;;;;;;;23.48;14.02;;;-1.60;72.70;;;;;;5031399;28;20030;-66
2023/02/14 04:55:48;;;;;;;27.73;15.15;;;-1.60;72.30;;;;;;5034009;28;20124;-66
2023/02/14 04:58:14;;;;;;;27.67;14.25;;;-1.60;73.10;;;;;;5032277;28;20048;-66
2023/02/14 05:00:39;;;;;;;23.35;13.93;;;-1.60;73.50;;;;;;5028747;28;20037;-66
2023/02/14 05:03:05;;;;;;;25.73;14.13;;;-1.60;73.70;;;;;;5030605;28;20021;-66
2023/02/14 05:05:30;;;;;;;25.90;14.43;;;-1.70;75.10;;;;;;5033131;28;20331;-66
2023/02/14 05:07:56;;;;;;;23.13;13.00;;;-1.80;74.70;;;;;;5034256;28;20040;-66
2023/02/14 05:10:21;;;;;;;24.92;14.38;;;-1.80;74.00;;;;;;5032950;28;20342;-66
2023/02/14 05:12:47;;;;;;;27.75;15.68;;;-1.70;74.10;;;;;;5015557;28;20115;-66
2023/02/14 05:15:12;;;;;;;23.15;13.98;;;-1.70;75.00;;;;;;5033851;28;20474;-66
2023/02/14 05:17:38;;;;;;;24.38;13.93;;;-1.80;75.50;;;;;;5034137;28;20099;-66
2023/02/14 05:20:04;;;;;;;24.35;13.73;;;-1.70;75.10;;;;;;5023702;28;20038;-66
2023/02/14 05:22:30;;;;;;;24.08;14.15;;;-1.70;75.40;;;;;;5033542;28;20330;-66
2023/02/14 05:24:56;;;;;;;25.30;14.10;;;-1.60;77.00;;;;;;5033310;28;20029;-66
2023/02/14 05:27:21;;;;;;;24.20;14.35;;;-1.60;77.10;;;;;;5030169;28;20052;-66
2023/02/14 05:29:47;;;;;;;24.35;13.98;;;-1.60;78.40;;;;;;5034051;28;20310;-66
2023/02/14 05:32:12;;;;;;;22.00;12.70;;;-1.70;78.90;;;;;;5030797;28;20384;-66
2023/02/14 05:34:38;;;;;;;20.55;12.93;;;-1.70;80.10;;;;;;5031956;28;20299;-66
2023/02/14 05:37:06;;;;;;;21.33;12.05;;;-1.80;80.10;;;;;;5026446;28;20029;-66
2023/02/14 05:39:34;;;;;;;27.25;16.17;;;-1.80;80.40;;;;;;5011271;28;20034;-64
2023/02/14 05:42:00;;;;;;;36.00;19.90;;;-1.90;81.50;;;;;;5030918;28;20017;-64
2023/02/14 05:44:26;;;;;;;47.25;23.70;;;-2.00;81.70;;;;;;5027846;28;20021;-64
2023/02/14 05:46:54;;;;;;;34.97;20.10;;;-2.20;81.80;;;;;;5019238;28;20423;-64
2023/02/14 05:49:19;;;;;;;30.80;18.58;;;-2.30;80.70;;;;;;5027517;28;20021;-64
2023/02/14 05:51:47;;;;;;;29.83;17.38;;;-2.30;81.10;;;;;;5033297;28;20022;-63
2023/02/14 05:54:12;;;;;;;33.40;18.23;;;-2.40;80.20;;;;;;5020295;28;20018;-64
2023/02/14 05:56:38;;;;;;;22.88;13.65;;;-2.50;80.10;;;;;;5034085;28;20046;-64
2023/02/14 05:59:04;;;;;;;32.13;17.13;;;-2.60;79.70;;;;;;5010043;28;20111;-64
2023/02/14 06:01:29;;;;;;;29.40;14.98;;;-2.60;79.30;;;;;;5020298;28;20041;-65
2023/02/14 06:03:55;;;;;;;36.25;18.73;;;-2.60;78.90;;;;;;5032392;28;20152;-65
2023/02/14 06:06:20;;;;;;;28.17;16.67;;;-2.70;79.30;;;;;;5028281;28;20029;-64
2023/02/14 06:08:46;;;;;;;29.67;18.00;;;-2.70;78.80;;;;;;5031223;28;20057;-63
2023/02/14 06:11:14;;;;;;;30.27;17.08;;;-2.60;76.70;;;;;;5032203;28;20473;-64
2023/02/14 06:13:42;;;;;;;28.40;17.27;;;-2.50;76.70;;;;;;5027225;28;20034;-65
2023/02/14 06:16:07;;;;;;;25.70;16.52;;;-2.30;76.30;;;;;;5031510;28;20033;-64
2023/02/14 06:18:36;;;;;;;27.95;17.73;;;-2.10;78.60;;;;;;5026385;28;20037;-64
2023/02/14 06:21:02;;;;;;;25.95;16.20;;;-2.00;81.30;;;;;;5018648;28;20442;-64
2023/02/14 06:23:27;;;;;;;26.70;15.88;;;-2.00;82.90;;;;;;5024876;28;20063;-64
2023/02/14 06:25:53;;;;;;;27.17;15.07;;;-1.90;84.20;;;;;;5034521;28;20049;-63
2023/02/14 06:28:18;;;;;;;23.10;13.55;;;-1.90;85.70;;;;;;5035840;28;20074;-64
2023/02/14 06:30:45;;;;;;;24.15;14.57;;;-1.90;86.60;;;;;;5032069;28;20033;-64
2023/02/14 06:33:11;;;;;;;26.15;15.40;;;-1.90;87.80;;;;;;5033003;28;20036;-64
2023/02/14 06:35:37;;;;;;;27.02;15.65;;;-1.90;88.50;;;;;;5034033;28;20077;-64
2023/02/14 06:38:03;;;;;;;23.98;15.45;;;-1.80;89.00;;;;;;5036315;28;20465;-64
2023/02/14 06:40:29;;;;;;;25.02;15.00;;;-1.80;89.80;;;;;;5034088;28;20033;-64
2023/02/14 06:42:54;;;;;;;25.55;15.57;;;-1.80;90.50;;;;;;5037722;28;20407;-64
2023/02/14 06:45:20;;;;;;;24.15;14.75;;;-1.90;91.00;;;;;;5017060;28;20321;-64
2023/02/14 06:47:46;;;;;;;23.20;14.77;;;-1.90;90.10;;;;;;5030534;28;20403;-64
2023/02/14 06:50:12;;;;;;;24.73;15.32;;;-1.90;90.20;;;;;;5038103;28;20029;-64
2023/02/14 06:52:38;;;;;;;24.83;15.07;;;-1.90;90.50;;;;;;5038035;28;20021;-64
2023/02/14 06:55:03;;;;;;;23.90;13.52;;;-1.90;90.20;;;;;;5037124;28;20091;-63
2023/02/14 06:57:29;;;;;;;26.65;14.65;;;-1.90;90.10;;;;;;5038431;28;20034;-64
2023/02/14 06:59:54;;;;;;;26.83;15.70;;;-1.90;90.00;;;;;;5037125;28;20108;-64
2023/02/14 07:02:20;;;;;;;24.92;14.50;;;-1.90;90.20;;;;;;5038169;28;20032;-63
2023/02/14 07:04:46;;;;;;;25.98;15.18;;;-1.90;89.60;;;;;;5035938;28;20030;-64
2023/02/14 07:07:11;;;;;;;29.58;16.58;;;-1.90;89.60;;;;;;5036507;28;20034;-63
2023/02/14 07:09:37;;;;;;;27.35;16.15;;;-1.80;89.50;;;;;;5036300;28;20034;-64
2023/02/14 07:12:03;;;;;;;26.05;15.32;;;-1.80;90.10;;;;;;5038210;28;20057;-63
2023/02/14 07:14:28;;;;;;;27.55;16.25;;;-1.80;90.30;;;;;;5036047;28;20380;-64
2023/02/14 07:16:54;;;;;;;26.58;17.45;;;-1.80;91.30;;;;;;5038136;28;20030;-63
2023/02/14 07:19:19;;;;;;;26.98;16.95;;;-1.70;91.30;;;;;;5035776;28;20017;-63
2023/02/14 07:21:45;;;;;;;26.27;16.48;;;-1.70;92.00;;;;;;5038089;28;20112;-63
2023/02/14 07:24:10;;;;;;;26.00;16.13;;;-1.70;92.00;;;;;;5037193;28;20044;-63
2023/02/14 07:26:36;;;;;;;25.10;15.23;;;-1.70;92.30;;;;;;5036421;28;20037;-64
2023/02/14 07:29:02;;;;;;;24.05;15.23;;;-1.70;92.30;;;;;;5035957;28;20532;-63
2023/02/14 07:31:27;;;;;;;23.23;14.85;;;-1.60;92.10;;;;;;5036232;28;20029;-63
2023/02/14 07:33:53;;;;;;;24.95;15.32;;;-1.60;92.50;;;;;;5035861;28;20111;-63
2023/02/14 07:36:18;;;;;;;23.88;13.07;;;-1.50;92.30;;;;;;5037265;28;20029;-64
2023/02/14 07:38:44;;;;;;;25.70;15.45;;;-1.40;92.50;;;;;;5036560;28;20040;-63
2023/02/14 07:41:10;;;;;;;23.40;13.38;;;-1.30;92.50;;;;;;5018394;28;20041;-63
2023/02/14 07:43:35;;;;;;;21.63;13.32;;;-1.10;92.30;;;;;;5036674;28;20401;-62
2023/02/14 07:46:02;;;;;;;21.75;12.77;;;-1.00;93.00;;;;;;5036531;28;20135;-63
2023/02/14 07:48:27;;;;;;;22.25;13.07;;;-0.90;93.60;;;;;;5036247;28;20371;-64
2023/02/14 07:50:56;;;;;;;19.90;12.93;;;-0.90;94.00;;;;;;5037602;28;20060;-64
2023/02/14 07:53:22;;;;;;;35.35;21.92;;;-0.90;93.40;;;;;;5037097;28;20438;-64
2023/02/14 07:55:49;;;;;;;27.25;16.83;;;-0.80;92.60;;;;;;5036080;28;20091;-64
2023/02/14 07:58:15;;;;;;;35.10;21.85;;;-0.60;91.30;;;;;;5036466;28;20033;-63
2023/02/14 08:00:40;;;;;;;29.67;18.50;;;-0.40;91.00;;;;;;5034117;28;20029;-64
2023/02/14 08:03:06;;;;;;;28.40;18.33;;;-0.30;91.70;;;;;;5037203;28;20034;-63
2023/02/14 08:05:31;;;;;;;23.75;15.05;;;-0.10;91.50;;;;;;5036191;28;20033;-64
2023/02/14 08:07:57;;;;;;;24.60;15.20;;;0.00;93.00;;;;;;5037022;28;20017;-63
2023/02/14 08:10:23;;;;;;;27.25;17.33;;;0.10;93.20;;;;;;5036166;28;20104;-63
2023/02/14 08:12:57;;;;;;;27.10;17.98;;;0.30;92.30;;;;;;5037066;28;20323;-63
2023/02/14 08:18:07;;;;;;;24.30;15.30;;;0.80;92.80;;;;;;5036540;28;20120;-63
2023/02/14 08:20:34;;;;;;;16.35;10.88;;;1.20;91.50;;;;;;5035428;28;20117;-63
2023/02/14 08:23:03;;;;;;;15.80;10.35;;;2.00;89.10;;;;;;5036061;28;20021;-64
2023/02/14 08:25:28;;;;;;;20.23;12.13;;;3.80;95.00;;;;;;5035993;28;20017;-64
2023/02/14 08:27:54;;;;;;;17.33;11.57;;;6.20;98.00;;;;;;5036492;28;20033;-63
2023/02/14 08:30:22;;;;;;;14.60;10.02;;;8.20;98.00;;;;;;5034256;28;20028;-64
2023/02/14 08:32:48;;;;;;;13.68;9.15;;;9.80;97.20;;;;;;5032826;28;20041;-63
2023/02/14 08:35:14;;;;;;;15.52;10.45;;;10.90;91.10;;;;;;5035057;28;20155;-63
2023/02/14 08:37:39;;;;;;;28.65;19.48;;;11.10;85.20;;;;;;5036610;28;20021;-63
2023/02/14 08:40:05;;;;;;;43.67;26.20;;;9.70;79.70;;;;;;5036287;28;20040;-62
2023/02/14 08:42:31;;;;;;;40.13;23.95;;;8.10;82.80;;;;;;5036674;28;20033;-64
2023/02/14 08:44:57;;;;;;;30.42;16.10;;;6.90;87.10;;;;;;5035278;28;20036;-65
2023/02/14 08:47:22;;;;;;;24.50;15.90;;;6.20;89.10;;;;;;5036475;28;20030;-64
2023/02/14 08:49:49;;;;;;;30.50;16.65;;;5.70;90.70;;;;;;5033892;28;20048;-64
2023/02/14 08:52:14;;;;;;;20.00;12.88;;;5.50;91.70;;;;;;5034715;28;20053;-64
2023/02/14 08:54:40;;;;;;;19.95;13.48;;;6.10;91.60;;;;;;5036249;28;20439;-64
2023/02/14 08:57:06;;;;;;;20.80;14.40;;;7.70;89.60;;;;;;5035180;28;20025;-64
2023/02/14 08:59:31;;;;;;;20.00;13.15;;;9.30;83.20;;;;;;5034174;28;20749;-64
2023/02/14 09:01:57;;;;;;;21.85;13.55;;;10.70;81.30;;;;;;5036340;28;20343;-64
2023/02/14 09:04:22;;;;;;;19.60;14.23;;;11.70;76.40;;;;;;5034436;28;20041;-64
2023/02/14 09:06:48;;;;;;;16.33;11.45;;;12.20;73.30;;;;;;5035344;28;20033;-64
2023/02/14 09:09:13;;;;;;;17.60;11.77;;;12.90;72.80;;;;;;5035015;28;20040;-64
2023/02/14 09:11:42;;;;;;;16.52;11.73;;;13.50;70.20;;;;;;5035647;28;20422;-64
2023/02/14 09:14:08;;;;;;;18.65;12.73;;;13.40;69.50;;;;;;5035253;28;20037;-65
2023/02/14 09:16:34;;;;;;;26.30;16.45;;;13.30;69.20;;;;;;5034816;28;20418;-64
2023/02/14 09:18:59;;;;;;;29.73;16.77;;;13.00;70.10;;;;;;5035067;28;20040;-64
2023/02/14 09:21:27;;;;;;;26.98;15.43;;;13.10;70.20;;;;;;5035866;28;20029;-64
2023/02/14 09:23:53;;;;;;;21.45;12.75;;;12.90;70.50;;;;;;5034973;28;20017;-64
2023/02/14 09:26:19;;;;;;;20.52;12.85;;;13.70;69.50;;;;;;5035016;28;20030;-64
2023/02/14 09:28:45;;;;;;;17.65;12.32;;;13.80;68.80;;;;;;5035928;28;20018;-64
2023/02/14 09:31:14;;;;;;;16.58;11.50;;;13.80;68.50;;;;;;5033865;28;20113;-64
2023/02/14 09:33:40;;;;;;;27.15;18.70;;;13.10;69.80;;;;;;5035750;28;20052;-64
2023/02/14 09:36:11;;;;;;;30.95;21.08;;;12.70;70.80;;;;;;5034803;28;20022;-64
2023/02/14 09:38:37;;;;;;;20.10;13.18;;;12.80;71.50;;;;;;5035013;28;20063;-64
2023/02/14 09:41:11;;;;;;;17.90;11.20;;;13.20;70.50;;;;;;5034178;28;20063;-65
2023/02/14 09:43:50;;;;;;;16.43;10.07;;;13.30;70.10;;;;;;5035802;28;20411;-65
2023/02/14 09:46:17;;;;;;;15.88;10.75;;;12.80;70.70;;;;;;5033520;28;20041;-64
2023/02/14 09:48:46;;;;;;;15.63;10.75;;;12.50;70.70;;;;;;5033591;28;20035;-64
2023/02/14 09:51:16;;;;;;;13.15;10.15;;;12.50;72.20;;;;;;5035547;28;20061;-64
2023/02/14 09:54:12;;;;;;;14.45;9.95;;;12.60;72.50;;;;;;5034868;28;20071;-64
2023/02/14 09:56:47;;;;;;;14.57;10.48;;;13.20;71.70;;;;;;5034284;28;20128;-64
2023/02/14 09:59:38;;;;;;;21.08;11.68;;;13.80;70.20;;;;;;5034514;28;20037;-64
2023/02/14 10:02:31;;;;;;;15.68;11.00;;;14.00;69.20;;;;;;5034783;28;20033;-64
2023/02/14 10:05:25;;;;;;;16.98;11.32;;;13.70;69.90;;;;;;5035422;28;20038;-65
2023/02/14 10:07:56;;;;;;;15.20;10.00;;;14.10;69.40;;;;;;5032977;28;20048;-65
2023/02/14 10:10:24;;;;;;;13.95;9.90;;;14.00;69.50;;;;;;5035610;28;20100;-65
2023/02/14 10:12:55;;;;;;;14.48;10.13;;;14.20;69.40;;;;;;5034691;28;20026;-65
2023/02/14 10:15:26;;;;;;;14.43;10.20;;;14.60;68.90;;;;;;5033935;28;20034;-65
2023/02/14 10:17:58;;;;;;;13.57;10.30;;;14.30;68.90;;;;;;5034480;28;20028;-65
2023/02/14 10:20:30;;;;;;;14.27;9.77;;;14.30;69.10;;;;;;5035398;28;20057;-65
2023/02/14 10:23:10;;;;;;;12.30;9.20;;;14.00;69.30;;;;;;5026912;28;20070;-65
2023/02/14 10:25:47;;;;;;;13.23;9.30;;;14.10;69.80;;;;;;5034864;28;20025;-65
2023/02/14 10:28:16;;;;;;;13.68;8.30;;;14.00;69.40;;;;;;5033395;28;20032;-66
2023/02/14 10:30:55;;;;;;;11.43;7.95;;;14.30;68.20;;;;;;5032775;28;20033;-65
2023/02/14 10:33:26;;;;;;;12.40;7.78;;;14.60;67.70;;;;;;5034503;28;20033;-66
2023/02/14 10:36:02;;;;;;;10.63;7.03;;;14.70;67.40;;;;;;5035202;28;20034;-66
2023/02/14 10:38:40;;;;;;;12.50;6.85;;;14.80;67.50;;;;;;5033846;28;20021;-66
2023/02/14 10:41:43;;;;;;;9.80;6.53;;;14.60;67.90;;;;;;5034927;28;20048;-66
2023/02/14 10:44:30;;;;;;;9.65;6.07;;;14.40;68.00;;;;;;5037123;28;20030;-66
2023/02/14 10:47:18;;;;;;;9.90;7.00;;;14.40;67.30;;;;;;5038346;28;20025;-66
2023/02/14 10:49:55;;;;;;;10.32;6.72;;;14.90;67.40;;;;;;5037333;28;20033;-67
2023/02/14 10:52:31;;;;;;;10.38;6.68;;;15.30;66.40;;;;;;5037779;28;20079;-67
2023/02/14 10:55:33;;;;;;;9.18;5.50;;;15.40;66.20;;;;;;5036504;28;20022;-67
2023/02/14 10:58:03;;;;;;;9.68;5.85;;;15.50;66.30;;;;;;4993625;28;20078;-67
2023/02/14 11:00:38;;;;;;;12.02;7.13;;;15.40;65.70;;;;;;5035769;28;20025;-67
2023/02/14 11:03:07;;;;;;;10.07;7.18;;;15.10;66.80;;;;;;5038160;28;20025;-67
2023/02/14 11:05:35;;;;;;;10.45;7.50;;;14.90;68.50;;;;;;5038319;28;20033;-67
2023/02/14 11:08:14;;;;;;;11.90;7.70;;;14.60;68.80;;;;;;5036581;28;20064;-67
2023/02/14 11:10:39;;;;;;;12.82;8.48;;;14.30;69.50;;;;;;5038415;28;20053;-67
2023/02/14 11:13:26;;;;;;;12.48;7.57;;;14.00;70.60;;;;;;5020168;28;20457;-67
2023/02/14 11:15:53;;;;;;;12.68;8.77;;;14.20;69.90;;;;;;5035805;28;20303;-68
2023/02/14 11:18:31;;;;;;;11.93;8.57;;;14.50;70.10;;;;;;5037188;28;20032;-68
2023/02/14 11:21:03;;;;;;;12.68;8.70;;;14.60;69.80;;;;;;5036521;28;20030;-68
2023/02/14 11:23:51;;;;;;;12.13;8.32;;;14.70;69.80;;;;;;5035069;28;20484;-68
2023/02/14 11:26:29;;;;;;;17.48;11.23;;;14.70;68.90;;;;;;5035695;28;20044;-67
2023/02/14 11:28:59;;;;;;;12.32;8.52;;;14.70;69.50;;;;;;5035668;28;20099;-68
2023/02/14 11:31:31;;;;;;;16.80;10.85;;;14.80;69.60;;;;;;5035976;28;20029;-68
2023/02/14 11:33:59;;;;;;;19.83;11.60;;;14.50;69.80;;;;;;5037753;28;20025;-67
2023/02/14 11:36:25;;;;;;;16.58;10.52;;;14.40;71.30;;;;;;5035927;28;20024;-68
2023/02/14 11:39:00;;;;;;;35.15;20.90;;;14.60;70.70;;;;;;5034469;28;20029;-69
2023/02/14 11:41:26;;;;;;;62.35;35.13;;;14.70;70.50;;;;;;5036415;28;20057;-69
2023/02/14 11:44:08;;;;;;;26.20;16.63;;;14.60;70.70;;;;;;5036608;28;20060;-68
2023/02/14 11:46:37;;;;;;;20.40;12.60;;;14.50;70.90;;;;;;5017199;28;20018;-68
2023/02/14 11:49:08;;;;;;;26.02;14.40;;;14.50;71.00;;;;;;5036042;28;20022;-68
2023/02/14 11:51:42;;;;;;;19.40;12.55;;;14.30;70.70;;;;;;5037309;28;20029;-68
2023/02/14 11:54:21;;;;;;;;;;;14.20;71.80;;;;;;5037676;28;20101;-67
2023/02/14 11:56:59;;;;;;;12.35;8.02;;;14.40;71.60;;;;;;5037184;28;19956;-68
2023/02/14 11:59:28;;;;;;;14.95;8.48;;;14.40;71.70;;;;;;5035692;28;20030;-68
2023/02/14 12:01:55;;;;;;;11.27;6.63;;;14.70;71.40;;;;;;5036499;28;20030;-67
2023/02/14 12:04:29;;;;;;;10.68;6.93;;;14.60;69.90;;;;;;5037140;28;20393;-67
2023/02/14 12:06:55;;;;;;;10.10;7.15;;;14.60;69.60;;;;;;5035830;28;20018;-68
2023/02/14 12:09:21;;;;;;;9.23;6.40;;;14.50;70.20;;;;;;5037308;28;20415;-67
2023/02/14 12:12:17;;;;;;;10.20;6.88;;;14.40;70.30;;;;;;5036240;28;20052;-67
2023/02/14 12:14:42;;;;;;;12.27;8.07;;;14.40;70.70;;;;;;5034923;28;20090;-67
2023/02/14 12:17:33;;;;;;;10.57;7.05;;;14.40;70.70;;;;;;5033464;28;20299;-67
2023/02/14 12:20:14;;;;;;;11.85;6.95;;;14.30;70.60;;;;;;5031305;28;20034;-67
2023/02/14 12:22:48;;;;;;;11.23;7.30;;;14.20;70.70;;;;;;5017057;28;20100;-67
2023/02/14 12:25:21;;;;;;;13.90;8.90;;;14.10;70.20;;;;;;5018176;28;20022;-67
2023/02/14 12:28:00;;;;;;;16.77;6.85;;;13.90;71.50;;;;;;5037061;28;20025;-67
2023/02/14 12:30:29;;;;;;;9.48;6.55;;;13.90;70.90;;;;;;5034661;28;20072;-66
2023/02/14 12:32:55;;;;;;;10.32;7.15;;;14.00;70.70;;;;;;5036442;28;20434;-69
2023/02/14 12:35:33;;;;;;;12.32;7.10;;;14.20;70.60;;;;;;5034111;28;20322;-66
2023/02/14 12:38:04;;;;;;;14.60;8.13;;;14.10;70.90;;;;;;5035798;28;20379;-66
2023/02/14 12:40:30;;;;;;;12.20;7.25;;;13.90;71.60;;;;;;5035579;28;20025;-66
2023/02/14 12:43:20;;;;;;;12.15;7.53;;;14.00;72.00;;;;;;5036787;28;20414;-67
2023/02/14 12:46:19;;;;;;;12.50;8.13;;;14.20;71.60;;;;;;5034575;28;20406;-67
2023/02/14 12:49:15;;;;;;;11.75;7.95;;;14.00;70.90;;;;;;5034602;28;20072;-67
2023/02/14 12:51:51;;;;;;;14.30;8.90;;;13.70;72.50;;;;;;5018451;28;20030;-67
2023/02/14 12:54:59;;;;;;;13.90;8.35;;;13.70;73.80;;;;;;5035751;28;20033;-67
2023/02/14 12:57:57;;;;;;;15.60;8.82;;;13.80;72.20;;;;;;5034441;28;20033;-67
2023/02/14 13:00:48;;;;;;;12.48;7.78;;;13.50;73.10;;;;;;5034578;28;20109;-66
2023/02/14 13:03:53;;;;;;;14.95;9.27;;;13.40;73.70;;;;;;5027162;28;20025;-66
2023/02/14 13:06:26;;;;;;;;;;;13.30;74.10;;;;;;5035548;28;20091;-66
2023/02/14 13:09:00;;;;;;;14.20;8.43;;;13.20;74.70;;;;;;5033568;28;19915;-67
2023/02/14 13:11:43;;;;;;;;;;;13.40;73.80;;;;;;5035647;28;20022;-67
2023/02/14 13:14:35;;;;;;;17.38;8.95;;;13.60;73.40;;;;;;5016064;28;19915;-67
2023/02/14 13:17:02;;;;;;;12.55;8.93;;;13.80;72.50;;;;;;5024791;28;20079;-67